Bridgewater, South Dakota
Current Conditions -  °F | °C
As of 6:53 AM on Monday 20 Oct 2014 (Local Time) from KMHE Reporting Station
Clear Clear  
Wind Chill: 34°   Ceiling: Unl
Heat Index: 38°   Visibility: 10mi
Dew Point: 35°   Wind: 5mph
Humidity: 89%   Direction: 260°W
Pressure: 30.09"   Gusts: NA
Location:  43.55°N, 97.51°W
Report Text: KMHE 201153Z AUTO 26004KT 10SM CLR 03/02 A3009 RMK AO2 SLP194 T00330017 10083 20017 53014 $
Loading
Personal Weather Stations






























Interactive Weather Map
Tropical Storm Tracking
New forecast layout! Learn more

10-Day Weather Forecast

Advertisements
Track Severe Weather on mobile